Time,TemperatureF,DewpointF,PressureIn,WindDirection,WindDirectionDegrees,WindSpeedMPH,WindSpeedGustMPH,Humidity,HourlyPrecipIn,Conditions,Clouds,dailyrainin,SoftwareType,DateUTC
2013-07-22 00:00:00,53.6,49.8,29.85,WNW,296,0.0,0.0,87,0.00,,,0.00,Wunderground v.1.15,2013-07-22 07:00:00,
2013-07-22 00:17:00,53.8,49.7,29.84,NNE,23,0.0,0.0,86,0.00,,,0.00,Wunderground v.1.15,2013-07-22 07:17:00,
2013-07-22 00:25:00,53.8,49.7,29.84,NNE,23,0.0,0.0,86,0.00,,,0.00,Wunderground v.1.15,2013-07-22 07:25:00,
2013-07-22 00:31:00,53.8,49.7,29.85,NNE,18,0.0,2.0,86,0.00,,,0.00,Wunderground v.1.15,2013-07-22 07:31:00,
2013-07-22 00:33:00,53.6,49.5,29.85,NNE,18,0.0,2.0,86,0.00,,,0.00,Wunderground v.1.15,2013-07-22 07:33:00,
2013-07-22 00:39:00,53.6,49.5,29.85,NNE,12,0.0,0.0,86,0.00,,,0.00,Wunderground v.1.15,2013-07-22 07:39:00,
2013-07-22 00:47:00,53.6,49.5,29.85,WNW,302,0.0,4.0,86,0.00,,,0.00,Wunderground v.1.15,2013-07-22 07:47:00,
2013-07-22 00:53:00,53.6,49.5,29.85,WNW,296,0.0,4.0,86,0.00,,,0.00,Wunderground v.1.15,2013-07-22 07:53:00,
2013-07-22 00:59:00,53.6,49.8,29.85,WNW,296,0.0,0.0,87,0.00,,,0.00,Wunderground v.1.15,2013-07-22 07:59:00,
2013-07-22 01:05:00,53.6,49.8,29.85,WNW,296,0.0,0.0,87,0.00,,,0.00,Wunderground v.1.15,2013-07-22 08:05:00,
2013-07-22 01:11:00,53.6,49.8,29.85,WNW,296,0.0,0.0,87,0.00,,,0.00,Wunderground v.1.15,2013-07-22 08:11:00,
2013-07-22 01:17:00,53.5,49.7,29.85,WNW,296,0.0,0.0,87,0.00,,,0.00,Wunderground v.1.15,2013-07-22 08:17:00,
2013-07-22 01:23:00,53.5,49.7,29.85,WNW,296,0.0,0.0,87,0.00,,,0.00,Wunderground v.1.15,2013-07-22 08:23:00,
2013-07-22 01:29:00,53.3,49.5,29.84,WSW,245,0.0,3.0,87,0.00,,,0.00,Wunderground v.1.15,2013-07-22 08:29:00,
2013-07-22 01:35:00,53.3,49.5,29.85,WSW,248,0.0,0.0,87,0.00,,,0.00,Wunderground v.1.15,2013-07-22 08:35:00,
2013-07-22 01:41:00,53.3,49.5,29.85,WSW,248,0.0,1.0,87,0.00,,,0.00,Wunderground v.1.15,2013-07-22 08:41:00,
2013-07-22 01:47:00,53.2,49.7,29.85,WNW,302,1.0,2.0,88,0.00,,,0.00,Wunderground v.1.15,2013-07-22 08:47:00,
2013-07-22 01:53:00,53.2,49.7,29.85,WNW,302,0.0,2.0,88,0.00,,,0.00,Wunderground v.1.15,2013-07-22 08:53:00,
2013-07-22 01:59:00,53.1,49.6,29.85,WNW,302,0.0,0.0,88,0.00,,,0.00,Wunderground v.1.15,2013-07-22 08:59:00,
2013-07-22 02:05:00,53.1,49.6,29.85,WNW,302,0.0,0.0,88,0.00,,,0.00,Wunderground v.1.15,2013-07-22 09:05:00,
2013-07-22 02:11:00,52.9,49.4,29.86,WNW,302,0.0,0.0,88,0.00,,,0.00,Wunderground v.1.15,2013-07-22 09:11:00,
2013-07-22 02:17:00,52.8,49.3,29.85,WNW,302,0.0,0.0,88,0.00,,,0.00,Wunderground v.1.15,2013-07-22 09:17:00,
2013-07-22 02:23:00,52.6,49.1,29.85,WNW,302,0.0,0.0,88,0.00,,,0.00,Wunderground v.1.15,2013-07-22 09:23:00,
2013-07-22 02:29:00,52.5,49.4,29.86,WNW,302,0.0,0.0,89,0.00,,,0.00,Wunderground v.1.15,2013-07-22 09:29:00,
2013-07-22 02:35:00,52.5,49.4,29.86,WNW,302,0.0,0.0,89,0.00,,,0.00,Wunderground v.1.15,2013-07-22 09:35:00,
2013-07-22 02:41:00,52.3,49.2,29.86,WNW,302,0.0,0.0,89,0.00,,,0.00,Wunderground v.1.15,2013-07-22 09:41:00,
2013-07-22 02:47:00,52.3,49.2,29.86,WNW,302,0.0,0.0,89,0.00,,,0.00,Wunderground v.1.15,2013-07-22 09:47:00,
2013-07-22 02:53:00,52.3,49.2,29.86,WNW,302,0.0,0.0,89,0.00,,,0.00,Wunderground v.1.15,2013-07-22 09:53:00,
2013-07-22 02:59:00,52.3,49.2,29.86,WNW,302,0.0,1.0,89,0.00,,,0.00,Wunderground v.1.15,2013-07-22 09:59:00,
2013-07-22 03:05:00,52.3,49.2,29.86,North,5,0.0,0.0,89,0.00,,,0.00,Wunderground v.1.15,2013-07-22 10:05:00,
2013-07-22 03:11:00,52.3,49.5,29.86,NW,306,0.0,0.0,90,0.00,,,0.00,Wunderground v.1.15,2013-07-22 10:11:00,
2013-07-22 03:17:00,52.3,49.5,29.86,NW,306,0.0,0.0,90,0.00,,,0.00,Wunderground v.1.15,2013-07-22 10:17:00,
2013-07-22 03:23:00,52.3,49.5,29.86,NW,306,0.0,0.0,90,0.00,,,0.00,Wunderground v.1.15,2013-07-22 10:23:00,
2013-07-22 03:29:00,52.3,49.5,29.86,NW,306,0.0,1.0,90,0.00,,,0.00,Wunderground v.1.15,2013-07-22 10:29:00,
2013-07-22 03:35:00,52.3,49.5,29.86,West,266,0.0,2.0,90,0.00,,,0.00,Wunderground v.1.15,2013-07-22 10:35:00,
2013-07-22 03:41:00,52.2,49.4,29.85,SW,234,0.0,3.0,90,0.00,,,0.00,Wunderground v.1.15,2013-07-22 10:41:00,
2013-07-22 03:47:00,52.2,49.4,29.85,North,355,0.0,0.0,90,0.00,,,0.00,Wunderground v.1.15,2013-07-22 10:47:00,
2013-07-22 03:53:00,52.2,49.4,29.85,WNW,287,0.0,4.0,90,0.00,,,0.00,Wunderground v.1.15,2013-07-22 10:53:00,
2013-07-22 03:59:00,52.2,49.4,29.85,NNE,12,1.0,1.0,90,0.00,,,0.00,Wunderground v.1.15,2013-07-22 10:59:00,
2013-07-22 04:05:00,52.2,49.4,29.85,North,5,1.0,1.0,90,0.00,,,0.00,Wunderground v.1.15,2013-07-22 11:05:00,
2013-07-22 04:11:00,52.2,49.7,29.85,WNW,286,1.0,1.0,91,0.00,,,0.00,Wunderground v.1.15,2013-07-22 11:11:00,
2013-07-22 04:17:00,52.3,49.5,29.85,WNW,282,1.0,1.0,90,0.00,,,0.00,Wunderground v.1.15,2013-07-22 11:17:00,
2013-07-22 04:23:00,52.3,49.8,29.85,NW,309,1.0,2.0,91,0.00,,,0.00,Wunderground v.1.15,2013-07-22 11:23:00,
2013-07-22 04:29:00,52.5,49.9,29.86,WNW,291,0.0,1.0,91,0.00,,,0.00,Wunderground v.1.15,2013-07-22 11:29:00,
2013-07-22 04:35:00,52.6,50.0,29.85,West,269,0.0,0.0,91,0.00,,,0.00,Wunderground v.1.15,2013-07-22 11:35:00,
2013-07-22 04:41:00,52.8,50.2,29.85,West,269,0.0,0.0,91,0.00,,,0.00,Wunderground v.1.15,2013-07-22 11:41:00,
2013-07-22 04:47:00,53.1,50.5,29.86,West,269,0.0,0.0,91,0.00,,,0.00,Wunderground v.1.15,2013-07-22 11:47:00,
2013-07-22 04:53:00,53.2,50.6,29.86,West,269,0.0,0.0,91,0.00,,,0.00,Wunderground v.1.15,2013-07-22 11:53:00,
2013-07-22 04:59:00,53.3,51.0,29.86,West,269,0.0,0.0,92,0.00,,,0.00,Wunderground v.1.15,2013-07-22 11:59:00,
2013-07-22 05:05:00,53.5,51.2,29.86,West,269,0.0,0.0,92,0.00,,,0.00,Wunderground v.1.15,2013-07-22 12:05:00,
2013-07-22 05:11:00,53.6,51.3,29.87,West,269,0.0,0.0,92,0.00,,,0.00,Wunderground v.1.15,2013-07-22 12:11:00,
2013-07-22 05:17:00,53.6,51.3,29.87,West,269,0.0,0.0,92,0.00,,,0.00,Wunderground v.1.15,2013-07-22 12:17:00,
2013-07-22 05:23:00,53.5,51.2,29.87,West,269,0.0,0.0,92,0.00,,,0.00,Wunderground v.1.15,2013-07-22 12:23:00,
2013-07-22 05:29:00,53.5,51.5,29.87,West,269,0.0,0.0,93,0.00,,,0.00,Wunderground v.1.15,2013-07-22 12:29:00,
2013-07-22 05:35:00,53.5,51.5,29.87,West,269,0.0,0.0,93,0.00,,,0.00,Wunderground v.1.15,2013-07-22 12:35:00,
2013-07-22 05:41:00,53.3,51.3,29.87,West,269,0.0,0.0,93,0.00,,,0.00,Wunderground v.1.15,2013-07-22 12:41:00,
2013-07-22 05:47:00,53.3,51.3,29.87,West,269,0.0,0.0,93,0.00,,,0.00,Wunderground v.1.15,2013-07-22 12:47:00,
2013-07-22 05:53:00,53.3,51.3,29.88,West,269,0.0,0.0,93,0.00,,,0.00,Wunderground v.1.15,2013-07-22 12:53:00,
2013-07-22 05:59:00,53.2,50.9,29.88,West,269,0.0,0.0,92,0.00,,,0.00,Wunderground v.1.15,2013-07-22 12:59:00,
2013-07-22 06:05:00,52.9,50.9,29.88,West,269,0.0,0.0,93,0.00,,,0.00,Wunderground v.1.15,2013-07-22 13:05:00,
2013-07-22 06:11:00,52.9,50.9,29.88,West,269,0.0,0.0,93,0.00,,,0.00,Wunderground v.1.15,2013-07-22 13:11:00,
2013-07-22 06:17:00,52.9,50.9,29.88,West,269,0.0,0.0,93,0.00,,,0.00,Wunderground v.1.15,2013-07-22 13:17:00,
2013-07-22 06:23:00,52.8,50.5,29.88,West,269,0.0,0.0,92,0.00,,,0.00,Wunderground v.1.15,2013-07-22 13:23:00,
2013-07-22 06:29:00,52.8,50.5,29.88,West,269,0.0,0.0,92,0.00,,,0.00,Wunderground v.1.15,2013-07-22 13:29:00,
2013-07-22 06:35:00,52.8,50.5,29.89,West,269,0.0,0.0,92,0.00,,,0.00,Wunderground v.1.15,2013-07-22 13:35:00,
2013-07-22 06:41:00,52.8,50.5,29.89,West,269,0.0,0.0,92,0.00,,,0.00,Wunderground v.1.15,2013-07-22 13:41:00,
2013-07-22 06:47:00,52.8,50.8,29.89,West,269,0.0,0.0,93,0.00,,,0.00,Wunderground v.1.15,2013-07-22 13:47:00,
2013-07-22 06:53:00,52.9,50.9,29.89,West,269,0.0,0.0,93,0.00,,,0.00,Wunderground v.1.15,2013-07-22 13:53:00,
2013-07-22 06:59:00,53.2,51.2,29.89,West,269,0.0,0.0,93,0.00,,,0.00,Wunderground v.1.15,2013-07-22 13:59:00,
2013-07-22 07:05:00,53.6,51.9,29.90,West,269,0.0,0.0,94,0.00,,,0.00,Wunderground v.1.15,2013-07-22 14:05:00,
2013-07-22 07:11:00,54.1,52.4,29.90,West,269,0.0,0.0,94,0.00,,,0.00,Wunderground v.1.15,2013-07-22 14:11:00,
2013-07-22 07:17:00,54.7,53.0,29.90,West,269,0.0,0.0,94,0.00,,,0.00,Wunderground v.1.15,2013-07-22 14:17:00,
2013-07-22 07:23:00,55.4,53.7,29.90,West,269,0.0,0.0,94,0.00,,,0.00,Wunderground v.1.15,2013-07-22 14:23:00,
2013-07-22 07:29:00,56.2,54.5,29.90,West,269,0.0,0.0,94,0.00,,,0.00,Wunderground v.1.15,2013-07-22 14:29:00,
2013-07-22 07:35:00,56.9,54.9,29.90,West,269,0.0,0.0,93,0.00,,,0.00,Wunderground v.1.15,2013-07-22 14:35:00,
2013-07-22 07:41:00,57.6,55.3,29.90,WNW,291,1.0,3.0,92,0.00,,,0.00,Wunderground v.1.15,2013-07-22 14:41:00,
2013-07-22 07:47:00,58.3,55.7,29.90,WNW,282,1.0,1.0,91,0.00,,,0.00,Wunderground v.1.15,2013-07-22 14:47:00,
2013-07-22 07:53:00,59.2,56.3,29.90,WNW,289,1.0,2.0,90,0.00,,,0.00,Wunderground v.1.15,2013-07-22 14:53:00,
2013-07-22 07:59:00,60.1,56.2,29.90,NNE,18,0.0,2.0,87,0.00,,,0.00,Wunderground v.1.15,2013-07-22 14:59:00,
2013-07-22 08:05:00,60.7,56.2,29.90,WNW,302,0.0,0.0,85,0.00,,,0.00,Wunderground v.1.15,2013-07-22 15:05:00,
2013-07-22 08:11:00,61.2,56.0,29.91,WNW,302,0.0,0.0,83,0.00,,,0.00,Wunderground v.1.15,2013-07-22 15:11:00,
2013-07-22 08:17:00,62.0,56.1,29.91,West,281,0.0,1.0,81,0.00,,,0.00,Wunderground v.1.15,2013-07-22 15:17:00,
2013-07-22 08:23:00,62.1,55.9,29.91,WNW,282,0.0,1.0,80,0.00,,,0.00,Wunderground v.1.15,2013-07-22 15:23:00,
2013-07-22 08:29:00,62.7,56.1,29.91,WNW,289,0.0,0.0,79,0.00,,,0.00,Wunderground v.1.15,2013-07-22 15:29:00,
2013-07-22 08:35:00,63.1,56.1,29.91,WNW,289,0.0,0.0,78,0.00,,,0.00,Wunderground v.1.15,2013-07-22 15:35:00,
2013-07-22 08:41:00,63.7,56.4,29.91,WNW,289,0.0,0.0,77,0.00,,,0.00,Wunderground v.1.15,2013-07-22 15:41:00,
2013-07-22 08:47:00,64.3,56.6,29.91,WSW,255,0.0,0.0,76,0.00,,,0.00,Wunderground v.1.15,2013-07-22 15:47:00,
2013-07-22 08:53:00,64.5,56.0,29.91,West,273,1.0,4.0,74,0.00,,,0.00,Wunderground v.1.15,2013-07-22 15:53:00,
2013-07-22 08:59:00,64.7,56.2,29.91,SSW,209,1.0,3.0,74,0.00,,,0.00,Wunderground v.1.15,2013-07-22 15:59:00,
2013-07-22 09:05:00,65.0,56.5,29.91,WNW,290,1.0,1.0,74,0.00,,,0.00,Wunderground v.1.15,2013-07-22 16:05:00,
2013-07-22 09:11:00,65.8,56.9,29.91,West,275,1.0,3.0,73,0.00,,,0.00,Wunderground v.1.15,2013-07-22 16:11:00,
2013-07-22 09:17:00,66.4,56.7,29.91,NNW,345,1.0,1.0,71,0.00,,,0.00,Wunderground v.1.15,2013-07-22 16:17:00,
2013-07-22 09:23:00,67.1,57.0,29.91,WSW,254,1.0,4.0,70,0.00,,,0.00,Wunderground v.1.15,2013-07-22 16:23:00,
2013-07-22 09:29:00,67.9,56.9,29.91,North,355,1.0,2.0,68,0.00,,,0.00,Wunderground v.1.15,2013-07-22 16:29:00,
2013-07-22 09:35:00,68.4,56.6,29.90,WNW,288,1.0,2.0,66,0.00,,,0.00,Wunderground v.1.15,2013-07-22 16:35:00,
2013-07-22 09:41:00,68.6,56.8,29.90,WSW,252,2.0,4.0,66,0.00,,,0.00,Wunderground v.1.15,2013-07-22 16:41:00,
2013-07-22 09:47:00,68.9,56.6,29.90,WSW,242,2.0,2.0,65,0.00,,,0.00,Wunderground v.1.15,2013-07-22 16:47:00,
2013-07-22 09:53:00,69.8,56.6,29.90,WSW,252,2.0,3.0,63,0.00,,,0.00,Wunderground v.1.15,2013-07-22 16:53:00,
2013-07-22 09:59:00,70.4,56.8,29.90,NW,306,2.0,7.0,62,0.00,,,0.00,Wunderground v.1.15,2013-07-22 16:59:00,
2013-07-22 10:05:00,70.3,56.2,29.90,NW,311,3.0,3.0,61,0.00,,,0.00,Wunderground v.1.15,2013-07-22 17:05:00,
2013-07-22 10:11:00,70.9,56.3,29.90,NW,319,3.0,5.0,60,0.00,,,0.00,Wunderground v.1.15,2013-07-22 17:11:00,
2013-07-22 10:17:00,71.6,57.4,29.90,WNW,298,2.0,2.0,61,0.00,,,0.00,Wunderground v.1.15,2013-07-22 17:17:00,
2013-07-22 10:23:00,72.5,57.4,29.90,SW,233,2.0,7.0,59,0.00,,,0.00,Wunderground v.1.15,2013-07-22 17:23:00,
2013-07-22 10:29:00,73.7,57.0,29.89,North,355,2.0,2.0,56,0.00,,,0.00,Wunderground v.1.15,2013-07-22 17:29:00,
2013-07-22 10:35:00,74.6,56.3,29.89,WNW,298,2.0,5.0,53,0.00,,,0.00,Wunderground v.1.15,2013-07-22 17:35:00,
2013-07-22 10:41:00,74.6,55.8,29.89,WSW,238,3.0,5.0,52,0.00,,,0.00,Wunderground v.1.15,2013-07-22 17:41:00,
2013-07-22 10:47:00,74.9,56.6,29.89,West,265,2.0,7.0,53,0.00,,,0.00,Wunderground v.1.15,2013-07-22 17:47:00,
2013-07-22 10:53:00,75.8,57.4,29.89,WNW,300,1.0,7.0,53,0.00,,,0.00,Wunderground v.1.15,2013-07-22 17:53:00,
2013-07-22 10:59:00,76.7,56.1,29.89,West,273,2.0,5.0,49,0.00,,,0.00,Wunderground v.1.15,2013-07-22 17:59:00,
2013-07-22 11:05:00,77.4,55.6,29.89,NW,317,2.0,5.0,47,0.00,,,0.00,Wunderground v.1.15,2013-07-22 18:05:00,
2013-07-22 11:11:00,77.9,55.5,29.89,NE,46,3.0,5.0,46,0.00,,,0.00,Wunderground v.1.15,2013-07-22 18:11:00,
2013-07-22 11:17:00,78.5,55.4,29.89,WSW,242,2.0,3.0,45,0.00,,,0.00,Wunderground v.1.15,2013-07-22 18:17:00,
2013-07-22 11:23:00,78.5,56.0,29.88,West,260,3.0,5.0,46,0.00,,,0.00,Wunderground v.1.15,2013-07-22 18:23:00,
2013-07-22 11:31:00,79.8,55.3,29.88,West,273,1.0,5.0,43,0.00,,,0.00,Wunderground v.1.15,2013-07-22 18:31:00,
2013-07-22 11:37:00,79.8,57.8,29.88,WSW,240,3.0,7.0,47,0.00,,,0.00,Wunderground v.1.15,2013-07-22 18:37:00,
2013-07-22 11:43:00,79.8,55.3,29.88,North,351,3.0,7.0,43,0.00,,,0.00,Wunderground v.1.15,2013-07-22 18:43:00,
2013-07-22 11:49:00,80.5,54.0,29.88,WNW,296,2.0,5.0,40,0.00,,,0.00,Wunderground v.1.15,2013-07-22 18:49:00,
2013-07-22 11:55:00,80.7,54.8,29.88,West,274,2.0,2.0,41,0.00,,,0.00,Wunderground v.1.15,2013-07-22 18:55:00,
2013-07-22 12:01:00,80.5,54.6,29.88,West,269,3.0,6.0,41,0.00,,,0.00,Wunderground v.1.15,2013-07-22 19:01:00,
2013-07-22 12:09:00,80.9,55.0,29.88,West,265,1.0,2.0,41,0.00,,,0.00,Wunderground v.1.15,2013-07-22 19:09:00,
2013-07-22 12:15:00,81.1,54.5,29.88,NNW,348,2.0,2.0,40,0.00,,,0.00,Wunderground v.1.15,2013-07-22 19:15:00,
2013-07-22 12:21:00,81.6,54.2,29.87,WNW,291,1.0,2.0,39,0.00,,,0.00,Wunderground v.1.15,2013-07-22 19:21:00,
2013-07-22 12:22:00,83.4,55.8,29.86,NE,46,1.0,1.0,39,0.00,,,0.00,Wunderground v.1.15,2013-07-22 19:22:00,
2013-07-22 12:24:00,83.4,55.8,29.86,West,259,1.0,1.0,39,0.00,,,0.00,Wunderground v.1.15,2013-07-22 19:24:00,
2013-07-22 12:26:00,83.8,58.3,29.86,West,260,1.0,3.0,42,0.00,,,0.00,Wunderground v.1.15,2013-07-22 19:26:00,
2013-07-22 12:28:00,83.8,55.5,29.86,West,274,1.0,3.0,38,0.00,,,0.00,Wunderground v.1.15,2013-07-22 19:28:00,
2013-07-22 12:29:00,82.4,57.0,29.87,East,86,0.0,1.0,42,0.00,,,0.00,Wunderground v.1.15,2013-07-22 19:29:00,
2013-07-22 12:30:00,83.8,55.5,29.86,WNW,284,2.0,2.0,38,0.00,,,0.00,Wunderground v.1.15,2013-07-22 19:30:00,
2013-07-22 12:32:00,84.0,54.9,29.86,NW,309,2.0,2.0,37,0.00,,,0.00,Wunderground v.1.15,2013-07-22 19:32:00,
2013-07-22 12:34:00,83.8,55.5,29.86,WNW,282,2.0,2.0,38,0.00,,,0.00,Wunderground v.1.15,2013-07-22 19:34:00,
2013-07-22 12:35:00,83.0,55.5,29.87,WNW,293,1.0,4.0,39,0.00,,,0.00,Wunderground v.1.15,2013-07-22 19:35:00,
2013-07-22 12:36:00,83.8,56.2,29.86,WSW,244,2.0,2.0,39,0.00,,,0.00,Wunderground v.1.15,2013-07-22 19:36:00,
2013-07-22 12:38:00,84.0,55.7,29.86,West,277,2.0,2.0,38,0.00,,,0.00,Wunderground v.1.15,2013-07-22 19:38:00,
2013-07-22 12:40:00,84.0,56.4,29.86,WSW,254,2.0,3.0,39,0.00,,,0.00,Wunderground v.1.15,2013-07-22 19:40:00,
2013-07-22 12:41:00,82.8,55.3,29.87,WSW,237,1.0,4.0,39,0.00,,,0.00,Wunderground v.1.15,2013-07-22 19:41:00,
2013-07-22 12:42:00,84.0,57.8,29.86,WNW,297,2.0,3.0,41,0.00,,,0.00,Wunderground v.1.15,2013-07-22 19:42:00,
2013-07-22 12:44:00,84.1,55.7,29.86,West,262,2.0,5.0,38,0.00,,,0.00,Wunderground v.1.15,2013-07-22 19:44:00,
2013-07-22 12:46:00,84.1,55.7,29.86,WNW,296,2.0,5.0,38,0.00,,,0.00,Wunderground v.1.15,2013-07-22 19:46:00,
2013-07-22 12:48:00,84.3,55.9,29.86,NW,324,2.0,5.0,38,0.00,,,0.00,Wunderground v.1.15,2013-07-22 19:48:00,
2013-07-22 12:49:00,83.0,54.8,29.87,WSW,244,1.0,1.0,38,0.00,,,0.00,Wunderground v.1.15,2013-07-22 19:49:00,
2013-07-22 12:50:00,84.5,56.1,29.86,West,272,2.0,5.0,38,0.00,,,0.00,Wunderground v.1.15,2013-07-22 19:50:00,
2013-07-22 12:52:00,84.9,56.5,29.86,West,269,2.0,5.0,38,0.00,,,0.00,Wunderground v.1.15,2013-07-22 19:52:00,
2013-07-22 12:54:00,85.3,56.1,29.86,WNW,286,1.0,5.0,37,0.00,,,0.00,Wunderground v.1.15,2013-07-22 19:54:00,
2013-07-22 12:55:00,83.4,55.1,29.87,SSW,208,1.0,1.0,38,0.00,,,0.00,Wunderground v.1.15,2013-07-22 19:55:00,
2013-07-22 12:56:00,85.5,54.7,29.86,WSW,247,1.0,5.0,35,0.00,,,0.00,Wunderground v.1.15,2013-07-22 19:56:00,
2013-07-22 12:58:00,85.7,56.4,29.86,SSW,204,1.0,5.0,37,0.00,,,0.00,Wunderground v.1.15,2013-07-22 19:58:00,
2013-07-22 13:00:00,85.5,55.5,29.86,SW,232,2.0,3.0,36,0.00,,,0.00,Wunderground v.1.15,2013-07-22 20:00:00,
2013-07-22 13:01:00,83.4,56.5,29.87,SSW,208,0.0,1.0,40,0.00,,,0.00,Wunderground v.1.15,2013-07-22 20:01:00,
2013-07-22 13:02:00,85.5,54.7,29.85,West,273,2.0,7.0,35,0.00,,,0.00,Wunderground v.1.15,2013-07-22 20:02:00,
2013-07-22 13:04:00,85.5,54.7,29.86,West,259,3.0,7.0,35,0.00,,,0.00,Wunderground v.1.15,2013-07-22 20:04:00,
2013-07-22 13:06:00,85.3,54.5,29.86,West,259,3.0,7.0,35,0.00,,,0.00,Wunderground v.1.15,2013-07-22 20:06:00,
2013-07-22 13:08:00,85.1,55.1,29.86,West,278,3.0,7.0,36,0.00,,,0.00,Wunderground v.1.15,2013-07-22 20:08:00,
2013-07-22 13:10:00,84.9,56.5,29.86,West,274,2.0,6.0,38,0.00,,,0.00,Wunderground v.1.15,2013-07-22 20:10:00,
2013-07-22 13:11:00,83.4,55.1,29.86,West,262,0.0,1.0,38,0.00,,,0.00,Wunderground v.1.15,2013-07-22 20:11:00,
2013-07-22 13:12:00,84.9,55.0,29.85,WSW,254,3.0,6.0,36,0.00,,,0.00,Wunderground v.1.15,2013-07-22 20:12:00,
2013-07-22 13:14:00,84.9,56.5,29.86,WNW,302,2.0,6.0,38,0.00,,,0.00,Wunderground v.1.15,2013-07-22 20:14:00,
2013-07-22 13:16:00,85.1,55.9,29.86,NW,319,2.0,6.0,37,0.00,,,0.00,Wunderground v.1.15,2013-07-22 20:16:00,
2013-07-22 13:18:00,85.3,52.9,29.86,WSW,251,2.0,6.0,33,0.00,,,0.00,Wunderground v.1.15,2013-07-22 20:18:00,
2013-07-22 13:20:00,85.3,54.5,29.86,WNW,288,2.0,5.0,35,0.00,,,0.00,Wunderground v.1.15,2013-07-22 20:20:00,
2013-07-22 13:22:00,85.3,54.5,29.86,West,274,2.0,5.0,35,0.00,,,0.00,Wunderground v.1.15,2013-07-22 20:22:00,
2013-07-22 13:24:00,85.5,55.5,29.86,NNW,346,2.0,5.0,36,0.00,,,0.00,Wunderground v.1.15,2013-07-22 20:24:00,
2013-07-22 13:26:00,85.9,55.8,29.86,WSW,249,2.0,5.0,36,0.00,,,0.00,Wunderground v.1.15,2013-07-22 20:26:00,
2013-07-22 13:28:00,86.1,55.2,29.86,SSW,207,2.0,5.0,35,0.00,,,0.00,Wunderground v.1.15,2013-07-22 20:28:00,
2013-07-22 13:30:00,85.9,56.6,29.86,WSW,241,2.0,3.0,37,0.00,,,0.00,Wunderground v.1.15,2013-07-22 20:30:00,
2013-07-22 13:32:00,85.7,56.4,29.86,WSW,257,2.0,3.0,37,0.00,,,0.00,Wunderground v.1.15,2013-07-22 20:32:00,
2013-07-22 13:34:00,85.5,56.3,29.86,SW,234,3.0,4.0,37,0.00,,,0.00,Wunderground v.1.15,2013-07-22 20:34:00,
2013-07-22 13:36:00,85.1,56.6,29.86,West,272,4.0,4.0,38,0.00,,,0.00,Wunderground v.1.15,2013-07-22 20:36:00,
2013-07-22 13:38:00,84.9,57.2,29.86,West,265,4.0,4.0,39,0.00,,,0.00,Wunderground v.1.15,2013-07-22 20:38:00,
2013-07-22 13:40:00,84.7,57.7,29.86,WSW,240,4.0,4.0,40,0.00,,,0.00,Wunderground v.1.15,2013-07-22 20:40:00,
2013-07-22 13:42:00,84.7,57.0,29.86,WNW,291,4.0,6.0,39,0.00,,,0.00,Wunderground v.1.15,2013-07-22 20:42:00,
2013-07-22 13:44:00,84.7,57.0,29.86,WNW,298,4.0,8.0,39,0.00,,,0.00,Wunderground v.1.15,2013-07-22 20:44:00,
2013-07-22 13:46:00,84.5,58.2,29.86,SW,219,4.0,8.0,41,0.00,,,0.00,Wunderground v.1.15,2013-07-22 20:46:00,
2013-07-22 13:48:00,84.7,57.7,29.85,WNW,302,3.0,8.0,40,0.00,,,0.00,Wunderground v.1.15,2013-07-22 20:48:00,
2013-07-22 13:50:00,84.9,57.2,29.86,WNW,298,3.0,3.0,39,0.00,,,0.00,Wunderground v.1.15,2013-07-22 20:50:00,
2013-07-22 13:52:00,85.1,56.6,29.86,WNW,298,3.0,3.0,38,0.00,,,0.00,Wunderground v.1.15,2013-07-22 20:52:00,
2013-07-22 13:54:00,84.9,56.5,29.86,West,263,4.0,4.0,38,0.00,,,0.00,Wunderground v.1.15,2013-07-22 20:54:00,
2013-07-22 13:56:00,84.9,57.9,29.86,North,5,4.0,4.0,40,0.00,,,0.00,Wunderground v.1.15,2013-07-22 20:56:00,
2013-07-22 13:58:00,84.9,58.6,29.86,West,273,4.0,4.0,41,0.00,,,0.00,Wunderground v.1.15,2013-07-22 20:58:00,
2013-07-22 14:00:00,84.9,58.6,29.86,WNW,290,4.0,4.0,41,0.00,,,0.00,Wunderground v.1.15,2013-07-22 21:00:00,
2013-07-22 14:02:00,85.1,58.8,29.86,West,266,4.0,9.0,41,0.00,,,0.00,Wunderground v.1.15,2013-07-22 21:02:00,
2013-07-22 14:04:00,84.9,57.9,29.86,West,266,3.0,9.0,40,0.00,,,0.00,Wunderground v.1.15,2013-07-22 21:04:00,
2013-07-22 14:06:00,84.7,58.4,29.86,WNW,303,4.0,9.0,41,0.00,,,0.00,Wunderground v.1.15,2013-07-22 21:06:00,
2013-07-22 14:08:00,84.7,59.1,29.85,WNW,290,4.0,9.0,42,0.00,,,0.00,Wunderground v.1.15,2013-07-22 21:08:00,
2013-07-22 14:10:00,85.1,58.8,29.86,WNW,290,4.0,5.0,41,0.00,,,0.00,Wunderground v.1.15,2013-07-22 21:10:00,
2013-07-22 14:12:00,85.1,57.4,29.85,NNW,340,4.0,5.0,39,0.00,,,0.00,Wunderground v.1.15,2013-07-22 21:12:00,
2013-07-22 14:14:00,85.3,58.2,29.85,NW,306,4.0,5.0,40,0.00,,,0.00,Wunderground v.1.15,2013-07-22 21:14:00,
2013-07-22 14:16:00,85.5,58.4,29.85,North,10,3.0,5.0,40,0.00,,,0.00,Wunderground v.1.15,2013-07-22 21:16:00,
2013-07-22 14:18:00,85.7,57.2,29.85,West,275,3.0,6.0,38,0.00,,,0.00,Wunderground v.1.15,2013-07-22 21:18:00,
2013-07-22 14:20:00,85.9,58.1,29.85,West,268,4.0,6.0,39,0.00,,,0.00,Wunderground v.1.15,2013-07-22 21:20:00,
2013-07-22 14:22:00,85.9,59.5,29.85,WNW,295,4.0,6.0,41,0.00,,,0.00,Wunderground v.1.15,2013-07-22 21:22:00,
2013-07-22 14:24:00,85.9,59.5,29.85,WNW,296,4.0,8.0,41,0.00,,,0.00,Wunderground v.1.15,2013-07-22 21:24:00,
2013-07-22 14:26:00,85.7,59.3,29.85,WSW,238,4.0,8.0,41,0.00,,,0.00,Wunderground v.1.15,2013-07-22 21:26:00,
2013-07-22 14:28:00,85.7,58.6,29.85,WNW,294,3.0,8.0,40,0.00,,,0.00,Wunderground v.1.15,2013-07-22 21:28:00,
2013-07-22 14:30:00,85.7,58.6,29.85,WNW,286,3.0,4.0,40,0.00,,,0.00,Wunderground v.1.15,2013-07-22 21:30:00,
2013-07-22 14:32:00,85.5,59.1,29.86,WNW,298,3.0,5.0,41,0.00,,,0.00,Wunderground v.1.15,2013-07-22 21:32:00,
2013-07-22 14:34:00,85.5,58.4,29.85,West,280,3.0,5.0,40,0.00,,,0.00,Wunderground v.1.15,2013-07-22 21:34:00,
2013-07-22 14:36:00,85.3,57.5,29.86,West,268,3.0,5.0,39,0.00,,,0.00,Wunderground v.1.15,2013-07-22 21:36:00,
2013-07-22 14:38:00,84.9,58.6,29.86,SW,219,3.0,5.0,41,0.00,,,0.00,Wunderground v.1.15,2013-07-22 21:38:00,
2013-07-22 14:40:00,84.5,58.9,29.86,WSW,239,4.0,5.0,42,0.00,,,0.00,Wunderground v.1.15,2013-07-22 21:40:00,
2013-07-22 14:42:00,84.1,59.2,29.86,WNW,286,4.0,5.0,43,0.00,,,0.00,Wunderground v.1.15,2013-07-22 21:42:00,
2013-07-22 14:44:00,84.0,58.4,29.86,NW,309,4.0,5.0,42,0.00,,,0.00,Wunderground v.1.15,2013-07-22 21:44:00,
2013-07-22 14:46:00,83.8,58.9,29.86,North,360,3.0,5.0,43,0.00,,,0.00,Wunderground v.1.15,2013-07-22 21:46:00,
2013-07-22 14:48:00,83.6,58.7,29.86,WSW,238,3.0,5.0,43,0.00,,,0.00,Wunderground v.1.15,2013-07-22 21:48:00,
2013-07-22 14:50:00,83.2,59.0,29.86,WNW,301,3.0,4.0,44,0.00,,,0.00,Wunderground v.1.15,2013-07-22 21:50:00,
2013-07-22 14:52:00,83.0,58.8,29.86,WSW,253,3.0,4.0,44,0.00,,,0.00,Wunderground v.1.15,2013-07-22 21:52:00,
2013-07-22 14:54:00,82.6,59.1,29.86,WNW,303,3.0,6.0,45,0.00,,,0.00,Wunderground v.1.15,2013-07-22 21:54:00,
2013-07-22 14:56:00,82.4,58.9,29.86,WNW,284,3.0,6.0,45,0.00,,,0.00,Wunderground v.1.15,2013-07-22 21:56:00,
2013-07-22 14:58:00,82.2,59.4,29.86,WNW,285,4.0,6.0,46,0.00,,,0.00,Wunderground v.1.15,2013-07-22 21:58:00,
2013-07-22 15:00:00,82.0,59.2,29.86,West,279,4.0,4.0,46,0.00,,,0.00,Wunderground v.1.15,2013-07-22 22:00:00,
2013-07-22 15:02:00,81.8,59.0,29.86,WNW,297,4.0,4.0,46,0.00,,,0.00,Wunderground v.1.15,2013-07-22 22:02:00,
2013-07-22 15:04:00,81.4,58.6,29.86,West,279,4.0,4.0,46,0.00,,,0.00,Wunderground v.1.15,2013-07-22 22:04:00,
2013-07-22 15:06:00,81.2,59.6,29.86,WNW,290,4.0,4.0,48,0.00,,,0.00,Wunderground v.1.15,2013-07-22 22:06:00,
2013-07-22 15:08:00,81.1,59.0,29.86,NW,310,3.0,4.0,47,0.00,,,0.00,Wunderground v.1.15,2013-07-22 22:08:00,
2013-07-22 15:10:00,81.1,59.0,29.86,WNW,290,3.0,3.0,47,0.00,,,0.00,Wunderground v.1.15,2013-07-22 22:10:00,
2013-07-22 15:12:00,80.9,59.4,29.86,West,274,3.0,3.0,48,0.00,,,0.00,Wunderground v.1.15,2013-07-22 22:12:00,
2013-07-22 15:14:00,80.7,59.2,29.86,WSW,250,3.0,5.0,48,0.00,,,0.00,Wunderground v.1.15,2013-07-22 22:14:00,
2013-07-22 15:16:00,80.5,59.0,29.86,West,270,3.0,5.0,48,0.00,,,0.00,Wunderground v.1.15,2013-07-22 22:16:00,
2013-07-22 15:18:00,80.1,58.6,29.86,West,270,4.0,9.0,48,0.00,,,0.00,Wunderground v.1.15,2013-07-22 22:18:00,
2013-07-22 15:20:00,79.9,59.0,29.86,NNE,25,4.0,4.0,49,0.00,,,0.00,Wunderground v.1.15,2013-07-22 22:20:00,
2013-07-22 15:22:00,79.8,58.4,29.86,West,279,4.0,6.0,48,0.00,,,0.00,Wunderground v.1.15,2013-07-22 22:22:00,
2013-07-22 15:24:00,79.4,58.6,29.86,WSW,248,4.0,6.0,49,0.00,,,0.00,Wunderground v.1.15,2013-07-22 22:24:00,
2013-07-22 15:26:00,79.2,59.0,29.86,WNW,288,4.0,6.0,50,0.00,,,0.00,Wunderground v.1.15,2013-07-22 22:26:00,
2013-07-22 15:30:00,79.0,58.8,29.86,WNW,283,4.0,4.0,50,0.00,,,0.00,Wunderground v.1.15,2013-07-22 22:30:00,
2013-07-22 15:34:00,79.0,59.3,29.86,NW,306,3.0,4.0,51,0.00,,,0.00,Wunderground v.1.15,2013-07-22 22:34:00,
2013-07-22 15:36:00,79.2,58.4,29.86,West,278,3.0,4.0,49,0.00,,,0.00,Wunderground v.1.15,2013-07-22 22:36:00,
2013-07-22 15:38:00,79.2,59.0,29.86,West,259,2.0,4.0,50,0.00,,,0.00,Wunderground v.1.15,2013-07-22 22:38:00,
2013-07-22 15:40:00,79.0,58.8,29.86,WNW,294,2.0,4.0,50,0.00,,,0.00,Wunderground v.1.15,2013-07-22 22:40:00,
2013-07-22 15:42:00,78.8,58.6,29.86,WNW,285,3.0,4.0,50,0.00,,,0.00,Wunderground v.1.15,2013-07-22 22:42:00,
2013-07-22 15:54:00,76.8,58.4,29.86,WNW,287,4.0,13.0,53,0.00,,,0.00,Wunderground v.1.15,2013-07-22 22:54:00,
2013-07-22 15:58:00,76.3,58.4,29.86,WNW,302,4.0,13.0,54,0.00,,,0.00,Wunderground v.1.15,2013-07-22 22:58:00,
2013-07-22 16:00:00,76.0,58.7,29.86,West,276,4.0,4.0,55,0.00,,,0.00,Wunderground v.1.15,2013-07-22 23:00:00,
2013-07-22 16:24:00,79.2,58.4,29.86,NW,304,4.0,6.0,49,0.00,,,0.00,Wunderground v.1.15,2013-07-22 23:24:00,
2013-07-22 16:40:00,78.5,58.3,29.86,NW,304,4.0,4.0,50,0.00,,,0.00,Wunderground v.1.15,2013-07-22 23:40:00,
2013-07-22 16:46:00,77.4,58.9,29.86,WNW,300,4.0,6.0,53,0.00,,,0.00,Wunderground v.1.15,2013-07-22 23:46:00,
2013-07-22 16:52:00,76.5,58.1,29.86,WSW,258,4.0,13.0,53,0.00,,,0.00,Wunderground v.1.15,2013-07-22 23:52:00,
2013-07-22 16:58:00,75.8,58.5,29.86,West,264,4.0,4.0,55,0.00,,,0.00,Wunderground v.1.15,2013-07-22 23:58:00,
2013-07-22 17:04:00,75.4,58.1,29.87,WSW,257,3.0,4.0,55,0.00,,,0.00,Wunderground v.1.15,2013-07-23 00:04:00,
2013-07-22 17:10:00,74.7,58.0,29.86,WNW,289,3.0,5.0,56,0.00,,,0.00,Wunderground v.1.15,2013-07-23 00:10:00,
2013-07-22 17:16:00,74.0,58.3,29.87,West,265,4.0,4.0,58,0.00,,,0.00,Wunderground v.1.15,2013-07-23 00:16:00,
2013-07-22 17:22:00,73.5,58.3,29.87,West,278,4.0,4.0,59,0.00,,,0.00,Wunderground v.1.15,2013-07-23 00:22:00,
2013-07-22 17:28:00,73.0,57.8,29.87,NW,304,4.0,4.0,59,0.00,,,0.00,Wunderground v.1.15,2013-07-23 00:28:00,
2013-07-22 17:34:00,72.7,57.5,29.87,NW,311,4.0,4.0,59,0.00,,,0.00,Wunderground v.1.15,2013-07-23 00:34:00,
2013-07-22 17:40:00,72.3,57.2,29.87,West,266,4.0,4.0,59,0.00,,,0.00,Wunderground v.1.15,2013-07-23 00:40:00,
2013-07-22 17:46:00,72.0,57.4,29.87,West,276,4.0,4.0,60,0.00,,,0.00,Wunderground v.1.15,2013-07-23 00:46:00,
2013-07-22 17:52:00,71.5,56.9,29.87,WNW,300,4.0,4.0,60,0.00,,,0.00,Wunderground v.1.15,2013-07-23 00:52:00,
2013-07-22 17:58:00,71.3,56.7,29.88,North,350,3.0,3.0,60,0.00,,,0.00,Wunderground v.1.15,2013-07-23 00:58:00,
2013-07-22 18:04:00,71.3,56.7,29.88,West,273,2.0,4.0,60,0.00,,,0.00,Wunderground v.1.15,2013-07-23 01:04:00,
2013-07-22 18:10:00,70.9,56.3,29.88,WNW,286,2.0,6.0,60,0.00,,,0.00,Wunderground v.1.15,2013-07-23 01:10:00,
2013-07-22 18:16:00,70.3,56.7,29.89,NW,304,5.0,5.0,62,0.00,,,0.00,Wunderground v.1.15,2013-07-23 01:16:00,
2013-07-22 18:22:00,69.8,56.6,29.89,North,349,4.0,5.0,63,0.00,,,0.00,Wunderground v.1.15,2013-07-23 01:22:00,
2013-07-22 18:28:00,69.3,56.6,29.90,WNW,284,3.0,3.0,64,0.00,,,0.00,Wunderground v.1.15,2013-07-23 01:28:00,
2013-07-22 18:34:00,68.8,56.6,29.90,SW,232,3.0,3.0,65,0.00,,,0.00,Wunderground v.1.15,2013-07-23 01:34:00,
2013-07-22 18:40:00,68.6,56.4,29.90,WNW,289,3.0,3.0,65,0.00,,,0.00,Wunderground v.1.15,2013-07-23 01:40:00,
2013-07-22 18:46:00,68.6,56.4,29.90,SW,234,1.0,1.0,65,0.00,,,0.00,Wunderground v.1.15,2013-07-23 01:46:00,
2013-07-22 18:52:00,68.3,56.1,29.90,NW,325,2.0,4.0,65,0.00,,,0.00,Wunderground v.1.15,2013-07-23 01:52:00,
2013-07-22 18:58:00,67.8,56.4,29.90,West,269,3.0,5.0,67,0.00,,,0.00,Wunderground v.1.15,2013-07-23 01:58:00,
2013-07-22 19:04:00,67.4,56.1,29.90,WSW,244,3.0,5.0,67,0.00,,,0.00,Wunderground v.1.15,2013-07-23 02:04:00,
2013-07-22 19:10:00,67.1,56.2,29.91,NW,306,4.0,4.0,68,0.00,,,0.00,Wunderground v.1.15,2013-07-23 02:10:00,
2013-07-22 19:16:00,66.8,56.3,29.91,WSW,257,4.0,5.0,69,0.00,,,0.00,Wunderground v.1.15,2013-07-23 02:16:00,
2013-07-22 19:22:00,66.4,56.3,29.91,WNW,294,4.0,5.0,70,0.00,,,0.00,Wunderground v.1.15,2013-07-23 02:22:00,
2013-07-22 19:28:00,66.1,56.0,29.91,WNW,296,4.0,4.0,70,0.00,,,0.00,Wunderground v.1.15,2013-07-23 02:28:00,
2013-07-22 19:34:00,66.0,55.9,29.91,NW,311,4.0,6.0,70,0.00,,,0.00,Wunderground v.1.15,2013-07-23 02:34:00,
2013-07-22 19:40:00,66.0,55.9,29.90,West,281,3.0,7.0,70,0.00,,,0.00,Wunderground v.1.15,2013-07-23 02:40:00,
2013-07-22 19:46:00,65.8,56.1,29.91,WNW,296,3.0,3.0,71,0.00,,,0.00,Wunderground v.1.15,2013-07-23 02:46:00,
2013-07-22 19:52:00,65.6,55.9,29.91,WSW,244,2.0,4.0,71,0.00,,,0.00,Wunderground v.1.15,2013-07-23 02:52:00,
2013-07-22 19:58:00,65.3,56.0,29.91,WNW,288,3.0,6.0,72,0.00,,,0.00,Wunderground v.1.15,2013-07-23 02:58:00,
2013-07-22 20:04:00,65.0,55.8,29.91,West,273,4.0,6.0,72,0.00,,,0.00,Wunderground v.1.15,2013-07-23 03:04:00,
2013-07-22 20:06:00,63.2,55.5,29.90,WNW,298,2.0,3.0,76,0.00,,,0.00,Wunderground v.1.15,2013-07-23 03:06:00,
2013-07-22 20:08:00,63.2,55.5,29.90,WNW,298,2.0,3.0,76,0.00,,,0.00,Wunderground v.1.15,2013-07-23 03:08:00,
2013-07-22 20:10:00,64.8,55.9,29.91,West,259,4.0,4.0,73,0.00,,,0.00,Wunderground v.1.15,2013-07-23 03:10:00,
2013-07-22 20:12:00,63.1,55.4,29.91,West,261,2.0,2.0,76,0.00,,,0.00,Wunderground v.1.15,2013-07-23 03:12:00,
2013-07-22 20:14:00,63.1,55.4,29.91,WNW,291,1.0,2.0,76,0.00,,,0.00,Wunderground v.1.15,2013-07-23 03:14:00,
2013-07-22 20:16:00,64.5,55.7,29.90,North,349,3.0,3.0,73,0.00,,,0.00,Wunderground v.1.15,2013-07-23 03:16:00,
2013-07-22 20:18:00,63.1,55.4,29.91,West,272,1.0,2.0,76,0.00,,,0.00,Wunderground v.1.15,2013-07-23 03:18:00,
2013-07-22 20:20:00,63.1,55.4,29.91,West,277,1.0,3.0,76,0.00,,,0.00,Wunderground v.1.15,2013-07-23 03:20:00,
2013-07-22 20:22:00,64.3,55.8,29.90,West,271,3.0,3.0,74,0.00,,,0.00,Wunderground v.1.15,2013-07-23 03:22:00,
2013-07-22 20:24:00,63.1,55.4,29.91,WNW,292,1.0,3.0,76,0.00,,,0.00,Wunderground v.1.15,2013-07-23 03:24:00,
2013-07-22 20:26:00,63.1,55.4,29.91,WNW,291,1.0,3.0,76,0.00,,,0.00,Wunderground v.1.15,2013-07-23 03:26:00,
2013-07-22 20:28:00,64.2,55.7,29.90,WSW,249,2.0,6.0,74,0.00,,,0.00,Wunderground v.1.15,2013-07-23 03:28:00,
2013-07-22 20:30:00,63.1,55.4,29.92,WNW,292,0.0,0.0,76,0.00,,,0.00,Wunderground v.1.15,2013-07-23 03:30:00,
2013-07-22 20:32:00,63.1,55.4,29.91,WNW,292,0.0,0.0,76,0.00,,,0.00,Wunderground v.1.15,2013-07-23 03:32:00,
2013-07-22 20:34:00,64.0,55.5,29.91,West,267,2.0,6.0,74,0.00,,,0.00,Wunderground v.1.15,2013-07-23 03:34:00,
2013-07-22 20:36:00,63.1,55.4,29.91,WNW,292,0.0,0.0,76,0.00,,,0.00,Wunderground v.1.15,2013-07-23 03:36:00,
2013-07-22 20:38:00,63.1,55.4,29.91,WNW,292,0.0,0.0,76,0.00,,,0.00,Wunderground v.1.15,2013-07-23 03:38:00,
2013-07-22 20:40:00,63.9,55.4,29.91,West,280,2.0,4.0,74,0.00,,,0.00,Wunderground v.1.15,2013-07-23 03:40:00,
2013-07-22 20:42:00,63.1,55.4,29.91,North,10,0.0,0.0,76,0.00,,,0.00,Wunderground v.1.15,2013-07-23 03:42:00,
2013-07-22 20:44:00,63.1,55.4,29.92,NNE,13,0.0,0.0,76,0.00,,,0.00,Wunderground v.1.15,2013-07-23 03:44:00,
2013-07-22 20:46:00,63.7,55.6,29.91,WSW,251,2.0,2.0,75,0.00,,,0.00,Wunderground v.1.15,2013-07-23 03:46:00,
2013-07-22 20:48:00,62.9,55.6,29.92,NNW,338,0.0,0.0,77,0.00,,,0.00,Wunderground v.1.15,2013-07-23 03:48:00,
2013-07-22 20:50:00,62.9,55.6,29.92,NNW,341,0.0,0.0,77,0.00,,,0.00,Wunderground v.1.15,2013-07-23 03:50:00,
2013-07-22 20:52:00,63.4,55.3,29.91,West,274,4.0,6.0,75,0.00,,,0.00,Wunderground v.1.15,2013-07-23 03:52:00,
2013-07-22 20:54:00,62.7,55.4,29.92,NNW,341,0.0,0.0,77,0.00,,,0.00,Wunderground v.1.15,2013-07-23 03:54:00,
2013-07-22 20:56:00,62.7,55.4,29.92,NNW,341,0.0,0.0,77,0.00,,,0.00,Wunderground v.1.15,2013-07-23 03:56:00,
2013-07-22 20:58:00,63.2,55.5,29.91,WNW,300,3.0,3.0,76,0.00,,,0.00,Wunderground v.1.15,2013-07-23 03:58:00,
2013-07-22 21:00:00,62.7,55.4,29.91,NNW,341,0.0,0.0,77,0.00,,,0.00,Wunderground v.1.15,2013-07-23 04:00:00,
2013-07-22 21:02:00,62.6,55.3,29.91,NNW,329,0.0,0.0,77,0.00,,,0.00,Wunderground v.1.15,2013-07-23 04:02:00,
2013-07-22 21:04:00,62.6,55.3,29.91,NNW,329,0.0,0.0,77,0.00,,,0.00,Wunderground v.1.15,2013-07-23 04:04:00,
2013-07-22 21:06:00,62.6,55.3,29.91,NE,42,0.0,0.0,77,0.00,,,0.00,Wunderground v.1.15,2013-07-23 04:06:00,
2013-07-22 21:08:00,62.6,55.3,29.91,NE,42,0.0,0.0,77,0.00,,,0.00,Wunderground v.1.15,2013-07-23 04:08:00,
2013-07-22 21:10:00,62.6,55.3,29.91,NE,42,0.0,0.0,77,0.00,,,0.00,Wunderground v.1.15,2013-07-23 04:10:00,
2013-07-22 21:12:00,62.6,55.3,29.91,NE,42,0.0,0.0,77,0.00,,,0.00,Wunderground v.1.15,2013-07-23 04:12:00,
2013-07-22 21:14:00,62.6,55.3,29.91,NE,42,0.0,0.0,77,0.00,,,0.00,Wunderground v.1.15,2013-07-23 04:14:00,
2013-07-22 21:16:00,62.6,55.3,29.91,NE,42,0.0,0.0,77,0.00,,,0.00,Wunderground v.1.15,2013-07-23 04:16:00,
2013-07-22 21:18:00,62.6,55.3,29.91,NE,42,0.0,0.0,77,0.00,,,0.00,Wunderground v.1.15,2013-07-23 04:18:00,
2013-07-22 21:20:00,62.6,55.3,29.91,NE,42,0.0,0.0,77,0.00,,,0.00,Wunderground v.1.15,2013-07-23 04:20:00,
2013-07-22 21:22:00,62.6,55.3,29.91,NE,42,0.0,0.0,77,0.00,,,0.00,Wunderground v.1.15,2013-07-23 04:22:00,
2013-07-22 21:24:00,62.6,55.3,29.91,NE,42,0.0,0.0,77,0.00,,,0.00,Wunderground v.1.15,2013-07-23 04:24:00,
2013-07-22 21:26:00,62.6,55.3,29.92,NE,38,0.0,0.0,77,0.00,,,0.00,Wunderground v.1.15,2013-07-23 04:26:00,
2013-07-22 21:28:00,62.4,55.1,29.92,NE,38,0.0,0.0,77,0.00,,,0.00,Wunderground v.1.15,2013-07-23 04:28:00,
2013-07-22 21:30:00,62.4,55.1,29.92,NE,39,0.0,0.0,77,0.00,,,0.00,Wunderground v.1.15,2013-07-23 04:30:00,
2013-07-22 21:32:00,62.4,55.4,29.92,ENE,66,0.0,1.0,78,0.00,,,0.00,Wunderground v.1.15,2013-07-23 04:32:00,
2013-07-22 21:34:00,62.4,55.4,29.93,ENE,66,1.0,2.0,78,0.00,,,0.00,Wunderground v.1.15,2013-07-23 04:34:00,
2013-07-22 21:36:00,62.4,55.1,29.92,ENE,66,1.0,2.0,77,0.00,,,0.00,Wunderground v.1.15,2013-07-23 04:36:00,
2013-07-22 21:38:00,62.4,55.1,29.92,ENE,66,1.0,2.0,77,0.00,,,0.00,Wunderground v.1.15,2013-07-23 04:38:00,
2013-07-22 21:40:00,62.3,55.4,29.92,ENE,66,1.0,1.0,78,0.00,,,0.00,Wunderground v.1.15,2013-07-23 04:40:00,
2013-07-22 21:42:00,62.3,55.4,29.93,ENE,66,1.0,1.0,78,0.00,,,0.00,Wunderground v.1.15,2013-07-23 04:42:00,
2013-07-22 21:44:00,62.3,55.4,29.93,ENE,66,0.0,1.0,78,0.00,,,0.00,Wunderground v.1.15,2013-07-23 04:44:00,
2013-07-22 21:46:00,62.3,55.4,29.93,ENE,66,0.0,1.0,78,0.00,,,0.00,Wunderground v.1.15,2013-07-23 04:46:00,
2013-07-22 21:48:00,62.3,55.4,29.93,ENE,66,0.0,1.0,78,0.00,,,0.00,Wunderground v.1.15,2013-07-23 04:48:00,
2013-07-22 21:50:00,62.3,55.4,29.92,ENE,66,0.0,0.0,78,0.00,,,0.00,Wunderground v.1.15,2013-07-23 04:50:00,
2013-07-22 21:52:00,62.3,55.4,29.92,ENE,66,0.0,0.0,78,0.00,,,0.00,Wunderground v.1.15,2013-07-23 04:52:00,
2013-07-22 21:54:00,62.3,55.4,29.92,ENE,66,0.0,0.0,78,0.00,,,0.00,Wunderground v.1.15,2013-07-23 04:54:00,
2013-07-22 21:56:00,62.3,55.4,29.92,ENE,66,0.0,0.0,78,0.00,,,0.00,Wunderground v.1.15,2013-07-23 04:56:00,
2013-07-22 21:58:00,62.3,55.4,29.92,ENE,66,0.0,0.0,78,0.00,,,0.00,Wunderground v.1.15,2013-07-23 04:58:00,
2013-07-22 22:00:00,62.3,55.4,29.92,ENE,66,0.0,0.0,78,0.00,,,0.00,Wunderground v.1.15,2013-07-23 05:00:00,
2013-07-22 22:02:00,62.3,55.4,29.92,ENE,66,0.0,0.0,78,0.00,,,0.00,Wunderground v.1.15,2013-07-23 05:02:00,
2013-07-22 22:04:00,62.1,55.2,29.92,ENE,66,0.0,0.0,78,0.00,,,0.00,Wunderground v.1.15,2013-07-23 05:04:00,
2013-07-22 22:06:00,62.1,55.2,29.92,ENE,66,0.0,0.0,78,0.00,,,0.00,Wunderground v.1.15,2013-07-23 05:06:00,
2013-07-22 22:08:00,62.1,55.2,29.92,ENE,66,0.0,0.0,78,0.00,,,0.00,Wunderground v.1.15,2013-07-23 05:08:00,
2013-07-22 22:10:00,62.1,55.2,29.92,ENE,66,0.0,0.0,78,0.00,,,0.00,Wunderground v.1.15,2013-07-23 05:10:00,
2013-07-22 22:12:00,62.1,55.2,29.92,ENE,66,0.0,0.0,78,0.00,,,0.00,Wunderground v.1.15,2013-07-23 05:12:00,
2013-07-22 22:14:00,62.0,55.1,29.92,ENE,66,0.0,0.0,78,0.00,,,0.00,Wunderground v.1.15,2013-07-23 05:14:00,
2013-07-22 22:16:00,62.0,55.1,29.92,ENE,65,0.0,0.0,78,0.00,,,0.00,Wunderground v.1.15,2013-07-23 05:16:00,
2013-07-22 22:18:00,62.0,55.1,29.92,ENE,65,0.0,0.0,78,0.00,,,0.00,Wunderground v.1.15,2013-07-23 05:18:00,
2013-07-22 22:20:00,62.0,55.1,29.92,ENE,65,0.0,0.0,78,0.00,,,0.00,Wunderground v.1.15,2013-07-23 05:20:00,
2013-07-22 22:22:00,62.0,55.1,29.92,ENE,65,0.0,0.0,78,0.00,,,0.00,Wunderground v.1.15,2013-07-23 05:22:00,
2013-07-22 22:24:00,62.0,55.1,29.92,ENE,65,0.0,0.0,78,0.00,,,0.00,Wunderground v.1.15,2013-07-23 05:24:00,
2013-07-22 22:26:00,62.1,55.2,29.92,ENE,65,0.0,0.0,78,0.00,,,0.00,Wunderground v.1.15,2013-07-23 05:26:00,
2013-07-22 22:28:00,62.1,55.2,29.92,ENE,65,0.0,0.0,78,0.00,,,0.00,Wunderground v.1.15,2013-07-23 05:28:00,
2013-07-22 22:30:00,62.1,55.2,29.91,ENE,65,0.0,0.0,78,0.00,,,0.00,Wunderground v.1.15,2013-07-23 05:30:00,
2013-07-22 22:32:00,62.1,55.2,29.91,ENE,65,0.0,0.0,78,0.00,,,0.00,Wunderground v.1.15,2013-07-23 05:32:00,
2013-07-22 22:34:00,62.1,54.8,29.91,ENE,65,0.0,0.0,77,0.00,,,0.00,Wunderground v.1.15,2013-07-23 05:34:00,
2013-07-22 22:36:00,62.1,54.8,29.91,ENE,65,0.0,0.0,77,0.00,,,0.00,Wunderground v.1.15,2013-07-23 05:36:00,
2013-07-22 22:38:00,62.1,54.8,29.91,ENE,65,0.0,0.0,77,0.00,,,0.00,Wunderground v.1.15,2013-07-23 05:38:00,
2013-07-22 22:42:00,62.3,54.6,29.90,ENE,65,0.0,0.0,76,0.00,,,0.00,Wunderground v.1.15,2013-07-23 05:42:00,
2013-07-22 22:44:00,62.3,54.6,29.90,ENE,65,0.0,0.0,76,0.00,,,0.00,Wunderground v.1.15,2013-07-23 05:44:00,
2013-07-22 22:46:00,62.3,54.6,29.90,ENE,65,0.0,0.0,76,0.00,,,0.00,Wunderground v.1.15,2013-07-23 05:46:00,
2013-07-22 22:48:00,62.4,54.7,29.90,ENE,65,0.0,0.0,76,0.00,,,0.00,Wunderground v.1.15,2013-07-23 05:48:00,
2013-07-22 22:56:00,62.6,54.2,29.91,ENE,65,0.0,0.0,74,0.00,,,0.00,Wunderground v.1.15,2013-07-23 05:56:00,
2013-07-22 23:04:00,62.7,53.9,29.91,WNW,285,0.0,2.0,73,0.00,,,0.00,Wunderground v.1.15,2013-07-23 06:04:00,
2013-07-22 23:06:00,62.7,54.3,29.90,WNW,285,0.0,2.0,74,0.00,,,0.00,Wunderground v.1.15,2013-07-23 06:06:00,
2013-07-22 23:08:00,62.9,54.1,29.90,WNW,285,0.0,2.0,73,0.00,,,0.00,Wunderground v.1.15,2013-07-23 06:08:00,
2013-07-22 23:12:00,62.9,54.1,29.91,WNW,285,0.0,0.0,73,0.00,,,0.00,Wunderground v.1.15,2013-07-23 06:12:00,
2013-07-22 23:14:00,62.9,54.1,29.91,WNW,285,0.0,0.0,73,0.00,,,0.00,Wunderground v.1.15,2013-07-23 06:14:00,
2013-07-22 23:16:00,62.9,54.1,29.91,WNW,285,0.0,0.0,73,0.00,,,0.00,Wunderground v.1.15,2013-07-23 06:16:00,
2013-07-22 23:18:00,62.9,54.5,29.91,WNW,285,0.0,0.0,74,0.00,,,0.00,Wunderground v.1.15,2013-07-23 06:18:00,
2013-07-22 23:22:00,62.9,54.5,29.91,WNW,285,0.0,0.0,74,0.00,,,0.00,Wunderground v.1.15,2013-07-23 06:22:00,
2013-07-22 23:26:00,62.9,54.5,29.91,WNW,285,0.0,0.0,74,0.00,,,0.00,Wunderground v.1.15,2013-07-23 06:26:00,
2013-07-22 23:32:00,62.9,54.5,29.92,WNW,285,0.0,0.0,74,0.00,,,0.00,Wunderground v.1.15,2013-07-23 06:32:00,
2013-07-22 23:34:00,62.9,54.9,29.92,WNW,285,0.0,0.0,75,0.00,,,0.00,Wunderground v.1.15,2013-07-23 06:34:00,
2013-07-22 23:36:00,62.1,54.8,29.90,ENE,65,0.0,0.0,77,0.00,,,0.00,Wunderground v.1.15,2013-07-23 06:36:00,
2013-07-22 23:44:00,62.7,54.7,29.91,WNW,285,0.0,0.0,75,0.00,,,0.00,Wunderground v.1.15,2013-07-23 06:44:00,
2013-07-22 23:46:00,62.4,54.4,29.90,ENE,65,0.0,0.0,75,0.00,,,0.00,Wunderground v.1.15,2013-07-23 06:46:00,
2013-07-22 23:54:00,62.6,54.2,29.91,ENE,65,0.0,0.0,74,0.00,,,0.00,Wunderground v.1.15,2013-07-23 06:54:00,
2013-07-22 23:56:00,62.6,54.9,29.91,WNW,285,0.0,0.0,76,0.00,,,0.00,Wunderground v.1.15,2013-07-23 06:56:00,